Station: Victoria River Downs

  Atmospheric Gas Attenuation - ITU Rec 676-11   --------------- db/100km ---------------
Date Time Temp RH % AH g/m3 Dew Point Wind Direction Speed kph Gust kph Barometer mB Rainfall Since 9am 24GHz 47GHz 76GHz 122GHz 134GHz 241GHz
07 07:50 15.5 33 4.36 -0.7 1015.8 0 10.5 19.3 23.7 61.5 45.9 154.4
07 07:40 15.4 30 3.94 -2.1 1015.6 0 9.7 18.8 22.4 57.9 41.4 138.5
07 07:30 15.3 30 3.92 -2.2 1015 0 9.6 18.7 22.3 57.7 41.2 137.9
07 07:20 15.1 30 3.87 -2.3 1015.3 0 9.5 18.7 22.2 57.5 40.8 136.3
07 07:10 15.2 31 4.02 -1.8 1015.1 0 9.8 18.9 22.7 58.7 42.3 141.8
07 07:00 15.3 28 3.66 -3.1 1014.5 0 9.1 18.4 21.5 55.5 38.4 128.0
07 06:50 15.6 28 3.72 -2.8 1014.7 0 9.2 18.4 21.6 55.8 38.9 129.8
07 06:40 15.8 27 3.63 -3.1 1014.6 0 9.0 18.2 21.3 54.9 37.9 126.1
07 06:30 15.8 26 3.5 -3.6 1014 0 8.7 18.0 20.8 53.7 36.5 121.3
07 06:20 16 26 3.54 -3.5 1014 0 8.8 18.1 20.9 53.9 36.8 122.4
07 06:10 16.3 26 3.61 -3.2 1013.8 0 8.9 18.1 21.0 54.3 37.4 124.6
07 06:00 16.1 26 3.56 -3.4 1013.4 0 8.8 18.1 20.9 54.0 36.9 123.0
07 05:50 16.2 26 3.59 -3.3 1013.7 0 8.9 18.1 21.0 54.2 37.2 124.0
07 05:40 16.5 25 3.51 -3.6 1013.8 0 8.7 17.9 20.7 53.4 36.3 120.6
07 05:30 16.7 25 3.55 -3.4 1013.3 0 8.8 17.9 20.7 53.5 36.6 121.7
07 05:20 16.7 25 3.55 -3.4 1013.7 0 8.8 17.9 20.8 53.6 36.6 121.8
07 05:10 17.1 24 3.49 -3.6 1013.5 0 8.7 17.8 20.5 52.8 35.8 119.0
07 04:50 17.6 24 3.6 -3.2 1013.4 0 8.9 17.8 20.7 53.4 36.7 122.2
07 04:40 17.5 25 3.73 -2.7 1013.3 0 9.2 18.0 21.1 54.5 38.1 127.1
07 04:30 17.3 26 3.83 -2.4 1012.7 0 9.4 18.1 21.5 55.4 39.2 131.0
07 04:20 17.4 25 3.7 -2.8 1013.1 0 9.1 18.0 21.0 54.3 37.8 126.1
07 04:10 17.9 25 3.82 -2.4 1012.9 0 9.3 18.0 21.3 55.0 38.8 129.7
07 04:00 18.2 24 3.73 -2.7 1012.4 0 9.1 17.8 20.9 54.0 37.7 126.0
07 03:50 18.3 25 3.91 -2 1012.7 0 9.5 18.1 21.5 55.5 39.5 132.4
07 03:40 18 25 3.84 -2.3 1012.7 0 9.4 18.0 21.3 55.1 39.0 130.3
07 03:30 18.3 24 3.75 -2.6 1012.2 0 9.2 17.8 20.9 54.1 37.9 126.5
07 03:20 19 23 3.75 -2.6 1012.6 0 9.2 17.7 20.8 53.7 37.6 125.5
07 03:10 19.4 23 3.84 -2.2 1012.4 0 9.3 17.8 21.0 54.1 38.3 128.1
07 03:00 19.6 23 3.88 -2.1 1011.9 0 9.4 17.8 21.0 54.3 38.6 129.2
07 02:50 19.6 23 3.88 -2.1 1012.2 0 9.4 17.8 21.0 54.3 38.6 129.2
07 02:40 19.9 22 3.78 -2.4 1012.1 0 9.2 17.6 20.6 53.3 37.4 125.2
07 02:30 19.9 22 3.78 -2.4 1011.6 0 9.2 17.6 20.6 53.3 37.4 125.1
07 02:20 20 23 3.97 -1.7 1012 0 9.6 17.8 21.2 54.8 39.3 131.8
07 02:10 19.6 24 4.05 -1.5 1012 0 9.8 18.0 21.5 55.7 40.3 135.3
07 02:00 19.8 25 4.27 -0.8 1011.7 0 10.2 18.2 22.2 57.4 42.5 142.8
07 01:50 19.6 26 4.39 -0.4 1012 0 10.5 18.4 22.6 58.5 43.8 147.6
07 01:40 19.2 29 4.78 0.8 1012.1 0 11.3 19.0 23.9 62.1 48.1 162.7
07 01:30 18.4 39 6.13 4.2 1011.8 0 14.2 21.0 28.6 74.7 63.4 216.4
07 01:20 18.3 37 5.78 3.4 1012.3 0 13.4 20.5 27.5 71.7 59.6 203.0
07 01:10 19.2 29 4.78 0.8 1012.3 0 11.3 19.0 23.9 62.1 48.1 162.8
07 01:00 19.8 27 4.61 0.3 1012 0 10.9 18.6 23.2 60.2 46.0 155.3
07 00:50 20.1 28 4.87 1 1012.3 0 11.5 18.9 24.0 62.2 48.6 164.3
07 00:40 20.2 29 5.07 1.6 1012.3 0 11.9 19.2 24.6 63.9 50.6 171.6
07 00:30 20.2 29 5.07 1.6 1011.9 0 11.9 19.2 24.6 63.8 50.6 171.5
07 00:20 20.7 29 5.22 2 1012.3 0 12.2 19.3 24.9 64.8 51.9 176.1
07 00:10 21 30 5.5 2.8 1012.3 0 12.8 19.6 25.7 66.9 54.7 185.9
07 00:00 21.1 30 5.53 2.9 1011.9 0 12.8 19.6 25.8 67.1 54.9 186.7
06 23:50 21.1 30 5.53 2.9 1012.4 0 12.8 19.6 25.8 67.1 54.9 186.8
06 23:40 21.5 30 5.66 3.2 1012.3 0 13.1 19.7 26.1 67.9 56.0 190.8
06 23:30 22 29 5.63 3.2 1011.9 0 13.0 19.5 25.8 67.2 55.3 188.4
06 23:20 22.7 29 5.86 3.8 1012.3 0 13.5 19.7 26.3 68.6 57.3 195.4
06 23:10 21.9 33 6.37 4.9 1012.3 0 14.5 20.5 28.3 73.8 63.4 216.7
06 23:00 18.9 40 6.48 5 1011.9 0 14.9 21.3 29.7 77.5 67.0 229.0
06 22:50 19 40 6.52 5.1 1012.1 0 15.0 21.4 29.8 77.8 67.4 230.4
06 22:40 19.1 39 6.39 4.8 1012.1 0 14.7 21.2 29.3 76.5 65.8 224.9
06 22:30 19.4 38 6.34 4.7 1011.6 0 14.6 21.0 29.0 75.7 65.0 222.0
06 22:20 19.1 39 6.39 4.8 1012 0 14.7 21.2 29.3 76.5 65.8 224.9
06 22:10 19.4 36 6.01 4 1011.9 0 13.9 20.6 27.9 72.7 61.3 209.1
06 22:00 19.6 35 5.91 3.7 1011.5 0 13.7 20.4 27.5 71.6 60.0 204.7
06 21:50 20.2 35 6.12 4.3 1011.8 0 14.1 20.5 28.0 73.0 61.9 211.4
06 21:40 20.7 34 6.12 4.3 1011.7 0 14.1 20.4 27.8 72.6 61.5 210.1
06 21:30 21 33 6.04 4.1 1011.3 0 13.9 20.2 27.4 71.6 60.4 206.2
06 21:20 21.7 31 5.91 3.9 1011.6 0 13.6 19.9 26.8 69.8 58.5 199.6
06 21:10 22.3 33 6.52 5.3 1011.4 0 14.8 20.6 28.6 74.6 64.6 221.2
06 21:00 22.7 35 7.07 6.5 1011 0 16.0 21.2 30.3 79.1 70.3 241.2
06 20:50 23.9 28 6.06 4.3 1011.2 0 13.8 19.7 26.6 69.3 58.5 199.8
06 20:40 24.6 26 5.85 3.8 1011.1 0 13.4 19.2 25.7 66.9 55.8 190.5
06 20:30 25.3 25 5.85 3.9 1010.7 0 13.3 19.1 25.5 66.3 55.4 188.8
06 20:20 25.3 26 6.09 4.4 1010.9 0 13.8 19.4 26.2 68.3 57.8 197.5
06 20:10 25.1 26 6.02 4.3 1010.8 0 13.7 19.3 26.1 67.9 57.2 195.5
06 20:00 25.2 26 6.05 4.3 1010.3 0 13.8 19.3 26.1 68.0 57.5 196.2
06 19:50 25.8 25 6.02 4.3 1010.4 0 13.7 19.2 25.8 67.3 56.7 193.8
06 19:40 26.3 24 5.94 4.1 1010.3 0 13.5 19.0 25.4 66.3 55.6 189.7
06 19:30 26.4 24 5.97 4.2 1009.8 0 13.6 19.0 25.5 66.4 55.8 190.5
06 19:20 26.8 23 5.85 4 1010 0 13.3 18.8 25.0 65.1 54.3 185.4
06 19:10 27.2 22 5.73 3.7 1009.9 0 13.0 18.5 24.5 63.8 52.9 180.3
06 19:00 27.9 22 5.95 4.2 1009.5 0 13.5 18.7 25.0 65.0 54.6 186.4
06 18:50 28.1 22 6.02 4.4 1009.7 0 13.6 18.7 25.1 65.5 55.2 188.4
06 18:40 28.6 21 5.9 4.2 1009.5 0 13.3 18.5 24.6 64.1 53.6 183.1
06 18:30 29.2 20 5.81 4 1009.1 0 13.1 18.2 24.2 62.9 52.4 178.7
06 18:20 29.8 19 5.7 3.7 1009.3 0 12.9 18.0 23.7 61.6 50.9 173.8
06 18:10 30.2 19 5.83 4 1009.1 0 13.1 18.1 23.9 62.3 51.9 177.3
06 18:00 30.6 19 5.95 4.4 1008.8 0 13.4 18.1 24.2 62.9 52.8 180.5
06 17:50 30.8 18 5.7 3.8 1009 0 12.9 17.8 23.4 60.9 50.3 171.7
06 17:40 31.1 18 5.79 4 1008.9 0 13.0 17.8 23.6 61.4 51.0 174.1
06 17:30 31.2 19 6.15 4.9 1008.5 0 13.8 18.2 24.6 64.0 54.3 185.9
06 17:20 31.4 18 5.89 4.2 1008.7 0 13.2 17.9 23.8 61.9 51.7 176.8
06 17:10 31.1 19 6.11 4.8 1008.6 0 13.7 18.2 24.5 63.8 54.0 184.8
06 17:00 31.5 19 6.25 5.1 1008.3 0 14.0 18.3 24.8 64.6 55.1 188.6
06 16:50 32 20 6.75 6.2 1008.6 0 15.0 18.8 26.1 68.1 59.6 204.4
06 16:40 31.8 19 6.35 5.3 1008.6 0 14.2 18.4 25.0 65.1 55.9 191.3
06 16:30 31.9 20 6.72 6.2 1008.2 0 14.9 18.8 26.0 67.9 59.3 203.5
06 16:20 32.1 20 6.79 6.3 1008.5 0 15.0 18.8 26.2 68.3 59.9 205.5
06 16:10 31.6 20 6.61 5.9 1008.5 0 14.7 18.7 25.8 67.3 58.5 200.6
06 16:00 32.2 20 6.83 6.4 1008.3 0 15.1 18.9 26.2 68.5 60.2 206.6
06 15:50 32 21 7.09 7 1008.6 0 15.7 19.2 27.1 70.8 62.9 216.0
06 15:40 32.3 21 7.21 7.2 1008.7 0 15.9 19.3 27.3 71.5 63.8 219.4
06 15:30 32 23 7.77 8.3 1008.4 0 17.1 20.0 29.1 76.2 69.6 239.7
06 15:20 31.6 24 7.93 8.6 1008.7 0 17.4 20.3 29.8 77.9 71.6 246.6
06 15:10 32 23 7.77 8.3 1008.8 0 17.1 20.1 29.1 76.3 69.6 239.8

Last Refresh: 07-Aug-2020 08:02:51

Most of the information presented on this site is sourced from the Bureau of Meteorology.  Copyright in all material sourced from the Bureau of Meteorology resides with the Commonwealth of Australia.